createdAt,value
2018-05-26T00:03:04.594Z,8.20
2018-05-26T00:08:09.190Z,7.27
2018-05-26T00:13:13.421Z,7.63
2018-05-26T00:18:17.853Z,8.23
2018-05-26T00:23:21.703Z,7.50
2018-05-26T00:28:25.568Z,7.70
2018-05-26T00:33:30.157Z,7.90
2018-05-26T00:38:34.756Z,7.50
2018-05-26T00:43:39.345Z,7.77
2018-05-26T00:48:42.444Z,7.63
2018-05-26T00:53:45.922Z,7.20
2018-05-26T00:58:49.776Z,7.80
2018-05-26T01:03:54.008Z,7.60
2018-05-26T01:08:57.093Z,7.30
2018-05-26T01:14:00.178Z,7.33
2018-05-26T01:19:03.654Z,8.03
2018-05-26T01:24:07.998Z,7.83
2018-05-26T01:29:11.083Z,8.13
2018-05-26T01:34:14.172Z,7.47
2018-05-26T01:39:18.432Z,7.67
2018-05-26T01:44:21.517Z,7.53
2018-05-26T01:49:25.336Z,7.77
2018-05-26T01:54:29.174Z,8.07
2018-05-26T01:59:32.661Z,8.77
2018-05-26T02:04:36.890Z,9.07
2018-05-26T02:09:40.766Z,8.90
2018-05-26T02:14:43.853Z,8.80
2018-05-26T02:19:48.083Z,9.40
2018-05-26T02:24:51.929Z,8.33
2018-05-26T02:29:55.414Z,9.10
2018-05-26T02:34:58.515Z,9.47
2018-05-26T02:40:03.110Z,8.93
2018-05-26T02:45:06.199Z,9.63
2018-05-26T02:50:10.803Z,9.53
2018-05-26T02:55:14.652Z,8.55
2018-05-26T03:00:18.515Z,9.87
2018-05-26T03:05:27.618Z,9.83
2018-05-26T03:10:36.800Z,9.50
2018-05-26T03:15:41.251Z,9.40
2018-05-26T03:20:45.681Z,8.90
2018-05-26T03:25:49.945Z,8.60
2018-05-26T03:30:53.024Z,10.50
2018-05-26T03:35:56.883Z,10.13
2018-05-26T03:41:00.733Z,10.35
2018-05-26T03:46:05.178Z,10.50
2018-05-26T03:51:09.778Z,10.87
2018-05-26T03:56:32.158Z,10.83
2018-05-26T04:01:35.248Z,10.90
2018-05-26T04:06:39.479Z,10.67
2018-05-26T04:11:42.958Z,10.30
2018-05-26T04:16:46.827Z,10.63
2018-05-26T04:21:51.138Z,10.20
2018-05-26T04:26:54.991Z,10.53
2018-05-26T04:31:59.429Z,10.70
2018-05-26T04:37:03.277Z,10.37
2018-05-26T04:42:07.887Z,10.30
2018-05-26T04:47:11.372Z,10.27
2018-05-26T04:52:15.231Z,9.80
2018-05-26T04:57:19.656Z,9.73
2018-05-26T05:02:24.097Z,9.77
2018-05-26T05:07:28.686Z,9.87
2018-05-26T05:12:33.126Z,9.18
2018-05-26T05:17:37.569Z,9.20
2018-05-26T05:22:40.655Z,8.45
2018-05-26T05:27:43.749Z,8.07
2018-05-26T05:32:48.183Z,8.10
2018-05-26T05:37:52.622Z,8.33
2018-05-26T05:42:56.103Z,7.27
2018-05-26T05:48:00.313Z,6.93
2018-05-26T05:53:04.751Z,6.93
2018-05-26T05:58:08.233Z,6.70
2018-05-26T06:03:11.712Z,6.83
2018-05-26T06:08:14.803Z,6.97
2018-05-26T06:13:19.230Z,6.62
2018-05-26T06:18:22.319Z,6.37
2018-05-26T06:23:25.798Z,6.30
2018-05-26T06:28:30.032Z,6.47
2018-05-26T06:33:34.615Z,6.50
2018-05-26T06:38:38.107Z,6.40
2018-05-26T06:43:41.958Z,6.40
2018-05-26T06:48:45.445Z,6.17
2018-05-26T06:53:49.303Z,6.27
2018-05-26T06:58:53.157Z,6.60
2018-05-26T07:03:57.750Z,5.97
2018-05-26T07:09:01.984Z,6.03
2018-05-26T07:14:05.843Z,6.17
2018-05-26T07:19:09.686Z,5.70
2018-05-26T07:24:14.284Z,6.20
2018-05-26T07:29:18.871Z,5.87
2018-05-26T07:34:22.724Z,6.00
2018-05-26T07:39:25.826Z,5.90
2018-05-26T07:44:28.910Z,5.57
2018-05-26T07:49:32.004Z,5.77
2018-05-26T07:54:35.084Z,5.60
2018-05-26T07:59:38.182Z,5.37
2018-05-26T08:04:42.617Z,5.10
2018-05-26T08:09:46.850Z,5.65
2018-05-26T08:14:50.326Z,4.90
2018-05-26T08:19:53.427Z,4.77
2018-05-26T08:24:56.524Z,4.37
2018-05-26T08:30:01.209Z,4.90
2018-05-26T08:35:04.978Z,4.80
2018-05-26T08:40:08.075Z,4.33
2018-05-26T08:45:12.299Z,4.00
2018-05-26T08:50:15.778Z,3.90
2018-05-26T08:55:20.379Z,4.07
2018-05-26T09:00:24.234Z,3.78
2018-05-26T09:05:27.462Z,3.78
2018-05-26T09:10:31.910Z,3.97
2018-05-26T09:15:36.129Z,4.50
2018-05-26T09:20:39.608Z,4.05
2018-05-26T09:25:44.046Z,4.03
2018-05-26T09:30:47.183Z,4.12
2018-05-26T09:35:51.664Z,3.70
2018-05-26T09:40:54.732Z,4.05
2018-05-26T09:45:59.180Z,3.90
2018-05-26T09:51:03.402Z,4.07
2018-05-26T09:56:07.852Z,3.70
2018-05-26T10:01:12.274Z,4.00
2018-05-26T10:06:15.358Z,3.60
2018-05-26T10:11:19.807Z,3.53
2018-05-26T10:16:23.653Z,3.53
2018-05-26T10:21:27.874Z,3.57
2018-05-26T10:26:32.308Z,3.80
2018-05-26T10:31:35.396Z,3.53
2018-05-26T10:36:38.474Z,4.07
2018-05-26T10:41:41.953Z,3.50
2018-05-26T10:46:45.446Z,3.57
2018-05-26T10:51:48.523Z,3.60
2018-05-26T10:56:52.765Z,3.40
2018-05-26T11:01:57.182Z,3.47
2018-05-26T11:07:01.626Z,3.30
2018-05-26T11:12:05.112Z,3.50
2018-05-26T11:17:08.240Z,3.53
2018-05-26T11:22:11.298Z,3.00
2018-05-26T11:27:14.394Z,3.07
2018-05-26T11:32:18.253Z,3.00
2018-05-26T11:37:23.826Z,3.42
2018-05-26T11:42:27.678Z,3.23
2018-05-26T11:47:30.768Z,2.97
2018-05-26T11:52:33.864Z,3.37
2018-05-26T11:57:38.298Z,3.20
2018-05-26T12:02:42.154Z,3.10
2018-05-26T12:07:45.246Z,3.07
2018-05-26T12:12:48.335Z,2.83
2018-05-26T12:17:51.420Z,3.07
2018-05-26T12:22:54.502Z,2.83
2018-05-26T12:27:59.107Z,3.10
2018-05-26T12:33:03.328Z,3.00
2018-05-26T12:38:07.172Z,3.10
2018-05-26T12:43:10.259Z,3.23
2018-05-26T12:48:13.339Z,3.60
2018-05-26T12:53:16.442Z,2.93
2018-05-26T12:58:19.930Z,3.07
2018-05-26T13:03:23.405Z,3.20
2018-05-26T13:08:27.254Z,3.10
2018-05-26T13:13:30.743Z,2.97
2018-05-26T13:18:35.181Z,3.40
2018-05-26T13:23:39.613Z,3.03
2018-05-26T13:28:44.206Z,3.10
2018-05-26T13:33:48.629Z,3.20
2018-05-26T13:38:52.503Z,3.10
2018-05-26T13:43:56.944Z,3.30
2018-05-26T13:49:00.427Z,3.10
2018-05-26T13:54:04.882Z,3.03
2018-05-26T13:59:09.291Z,3.00
2018-05-26T14:04:12.387Z,2.97
2018-05-26T14:09:16.619Z,3.27
2018-05-26T14:14:21.050Z,3.20
2018-05-26T14:19:25.652Z,3.13
2018-05-26T14:24:31.889Z,3.00
2018-05-26T14:29:35.746Z,2.97
2018-05-26T14:34:39.598Z,3.10
2018-05-26T14:39:42.699Z,3.20
2018-05-26T14:44:46.178Z,3.47
2018-05-26T14:49:49.305Z,3.00
2018-05-26T14:54:52.358Z,3.30
2018-05-26T14:59:56.795Z,2.90
2018-05-26T15:05:00.784Z,3.30
2018-05-26T15:10:05.201Z,3.27
2018-05-26T15:15:09.638Z,2.80
2018-05-26T15:20:14.065Z,2.97
2018-05-26T15:25:17.555Z,3.00
2018-05-26T15:30:20.660Z,3.23
2018-05-26T15:35:24.877Z,3.00
2018-05-26T15:40:29.316Z,2.97
2018-05-26T15:45:33.162Z,3.17
2018-05-26T15:50:36.247Z,3.17
2018-05-26T15:55:40.686Z,3.37
2018-05-26T16:00:43.767Z,3.33
2018-05-26T16:05:47.608Z,3.50
2018-05-26T16:10:51.109Z,3.07
2018-05-26T16:15:54.958Z,3.40
2018-05-26T16:20:58.451Z,3.33
2018-05-26T16:26:01.519Z,3.10
2018-05-26T16:31:04.608Z,3.30
2018-05-26T16:36:07.712Z,3.10
2018-05-26T16:41:10.779Z,3.00
2018-05-26T16:46:15.004Z,2.90
2018-05-26T16:51:19.439Z,3.00
2018-05-26T16:56:23.875Z,3.00
2018-05-26T17:01:27.360Z,3.00
2018-05-26T17:06:30.443Z,3.00
2018-05-26T17:11:34.671Z,3.30
2018-05-26T17:16:37.764Z,3.20
2018-05-26T17:21:42.964Z,3.07
2018-05-26T17:26:47.393Z,3.07
2018-05-26T17:31:51.831Z,2.80
2018-05-26T17:36:55.310Z,2.67
2018-05-26T17:41:59.752Z,3.13
2018-05-26T17:47:04.185Z,2.93
2018-05-26T17:52:07.662Z,3.07
2018-05-26T17:57:11.522Z,3.27
2018-05-26T18:02:15.771Z,3.10
2018-05-26T18:07:19.255Z,3.03
2018-05-26T18:12:24.818Z,3.47
2018-05-26T18:17:29.037Z,3.30
2018-05-26T18:22:32.902Z,3.20
2018-05-26T18:27:36.386Z,3.43
2018-05-26T18:32:40.821Z,3.50
2018-05-26T18:37:44.311Z,4.00
2018-05-26T18:42:48.542Z,3.37
2018-05-26T18:47:52.029Z,3.20
2018-05-26T18:52:55.880Z,3.03
2018-05-26T18:58:00.311Z,3.30
2018-05-26T19:03:04.897Z,3.40
2018-05-26T19:08:09.505Z,3.50
2018-05-26T19:13:12.994Z,3.73
2018-05-26T19:18:17.229Z,4.23
2018-05-26T19:23:21.468Z,4.60
2018-05-26T19:28:25.901Z,4.20
2018-05-26T19:33:29.780Z,4.13
2018-05-26T19:38:33.618Z,4.17
2018-05-26T19:43:38.060Z,3.90
2018-05-26T19:48:41.911Z,3.83
2018-05-26T19:53:46.423Z,4.43
2018-05-26T19:58:51.077Z,4.33
2018-05-26T20:03:55.296Z,4.50
2018-05-26T20:08:59.725Z,4.20
2018-05-26T20:14:02.848Z,4.50
2018-05-26T20:19:05.940Z,5.00
2018-05-26T20:24:09.022Z,4.50
2018-05-26T20:29:13.248Z,4.87
2018-05-26T20:34:16.738Z,4.53
2018-05-26T20:39:21.037Z,4.70
2018-05-26T20:44:24.127Z,4.43
2018-05-26T20:49:28.031Z,5.20
2018-05-26T20:54:31.146Z,4.50
2018-05-26T20:59:34.237Z,4.43
2018-05-26T21:04:38.842Z,4.50
2018-05-26T21:09:43.435Z,4.70
2018-05-26T21:14:47.031Z,5.10
2018-05-26T21:19:50.915Z,4.73
2018-05-26T21:24:55.355Z,4.33
2018-05-26T21:29:58.431Z,4.70
2018-05-26T21:35:02.894Z,5.30
2018-05-26T21:40:05.983Z,5.40
2018-05-26T21:45:10.598Z,6.03
2018-05-26T21:50:14.833Z,5.80
2018-05-26T21:55:19.435Z,5.80
2018-05-26T22:00:24.045Z,5.40
2018-05-26T22:05:27.899Z,5.83
2018-05-26T22:10:32.334Z,5.60
2018-05-26T22:15:36.766Z,5.40
2018-05-26T22:20:41.361Z,5.83
2018-05-26T22:25:45.600Z,5.50
2018-05-26T22:30:49.996Z,5.43
2018-05-26T22:35:53.074Z,5.10
2018-05-26T22:40:57.822Z,5.40
2018-05-26T22:46:01.688Z,5.20
2018-05-26T22:51:06.129Z,5.45
2018-05-26T22:56:10.363Z,5.30
2018-05-26T23:01:14.953Z,5.20
2018-05-26T23:06:18.047Z,5.50
2018-05-26T23:11:21.901Z,5.60
2018-05-26T23:16:24.976Z,5.60
2018-05-26T23:21:29.420Z,5.27
2018-05-26T23:26:33.649Z,5.93
2018-05-26T23:31:37.491Z,5.70
2018-05-26T23:36:42.086Z,5.90
2018-05-26T23:41:45.179Z,5.60
2018-05-26T23:46:48.259Z,6.03
2018-05-26T23:51:52.854Z,6.27
2018-05-26T23:56:57.294Z,5.67
